sensor_id;sensor_type;location;lat;lon;timestamp;P1;durP1;ratioP1;P2;durP2;ratioP2
15451;SDS011;7827;53.594;9.938;2023-04-03T00:01:28;11.93;;;4.23;;
15451;SDS011;7827;53.594;9.938;2023-04-03T00:03:56;6.30;;;3.73;;
15451;SDS011;7827;53.594;9.938;2023-04-03T00:06:25;5.80;;;3.17;;
15451;SDS011;7827;53.594;9.938;2023-04-03T00:08:54;6.30;;;3.37;;
15451;SDS011;7827;53.594;9.938;2023-04-03T00:11:22;9.40;;;3.13;;
15451;SDS011;7827;53.594;9.938;2023-04-03T00:13:51;7.73;;;3.23;;
15451;SDS011;7827;53.594;9.938;2023-04-03T00:16:21;8.80;;;3.70;;
15451;SDS011;7827;53.594;9.938;2023-04-03T00:18:49;8.97;;;3.73;;
15451;SDS011;7827;53.594;9.938;2023-04-03T00:21:17;6.33;;;3.80;;
15451;SDS011;7827;53.594;9.938;2023-04-03T00:23:46;12.57;;;3.70;;
15451;SDS011;7827;53.594;9.938;2023-04-03T00:26:14;8.60;;;3.13;;
15451;SDS011;7827;53.594;9.938;2023-04-03T00:28:43;7.47;;;3.60;;
15451;SDS011;7827;53.594;9.938;2023-04-03T00:31:13;7.63;;;3.67;;
15451;SDS011;7827;53.594;9.938;2023-04-03T00:33:44;10.80;;;3.67;;
15451;SDS011;7827;53.594;9.938;2023-04-03T00:36:12;7.97;;;3.30;;
15451;SDS011;7827;53.594;9.938;2023-04-03T00:38:41;10.47;;;3.53;;
15451;SDS011;7827;53.594;9.938;2023-04-03T00:41:10;11.40;;;3.87;;
15451;SDS011;7827;53.594;9.938;2023-04-03T00:43:38;7.70;;;3.43;;
15451;SDS011;7827;53.594;9.938;2023-04-03T00:46:07;11.23;;;3.70;;
15451;SDS011;7827;53.594;9.938;2023-04-03T00:48:36;11.20;;;3.90;;
15451;SDS011;7827;53.594;9.938;2023-04-03T00:51:11;7.53;;;3.70;;
15451;SDS011;7827;53.594;9.938;2023-04-03T00:53:44;8.83;;;4.00;;
15451;SDS011;7827;53.594;9.938;2023-04-03T00:56:18;6.57;;;3.63;;
15451;SDS011;7827;53.594;9.938;2023-04-03T00:58:51;10.20;;;3.30;;
15451;SDS011;7827;53.594;9.938;2023-04-03T01:01:24;9.00;;;3.93;;
15451;SDS011;7827;53.594;9.938;2023-04-03T01:03:56;10.50;;;3.40;;
15451;SDS011;7827;53.594;9.938;2023-04-03T01:06:29;10.10;;;3.80;;
15451;SDS011;7827;53.594;9.938;2023-04-03T01:09:06;8.17;;;4.00;;
15451;SDS011;7827;53.594;9.938;2023-04-03T01:11:35;9.57;;;3.47;;
15451;SDS011;7827;53.594;9.938;2023-04-03T01:14:03;6.13;;;3.50;;
15451;SDS011;7827;53.594;9.938;2023-04-03T01:16:32;5.60;;;3.47;;
15451;SDS011;7827;53.594;9.938;2023-04-03T01:19:01;10.73;;;3.63;;
15451;SDS011;7827;53.594;9.938;2023-04-03T01:24:35;7.30;;;3.47;;
15451;SDS011;7827;53.594;9.938;2023-04-03T01:27:09;15.87;;;3.80;;
15451;SDS011;7827;53.594;9.938;2023-04-03T01:29:39;10.53;;;3.97;;
15451;SDS011;7827;53.594;9.938;2023-04-03T01:32:11;9.07;;;3.77;;
15451;SDS011;7827;53.594;9.938;2023-04-03T01:34:40;10.97;;;3.47;;
15451;SDS011;7827;53.594;9.938;2023-04-03T01:37:09;10.13;;;3.50;;
15451;SDS011;7827;53.594;9.938;2023-04-03T01:39:37;12.13;;;3.93;;
15451;SDS011;7827;53.594;9.938;2023-04-03T01:42:05;10.57;;;3.40;;
15451;SDS011;7827;53.594;9.938;2023-04-03T01:44:38;6.13;;;3.00;;
15451;SDS011;7827;53.594;9.938;2023-04-03T01:47:07;8.83;;;3.97;;
15451;SDS011;7827;53.594;9.938;2023-04-03T01:49:39;6.93;;;3.00;;
15451;SDS011;7827;53.594;9.938;2023-04-03T01:52:07;7.13;;;3.33;;
15451;SDS011;7827;53.594;9.938;2023-04-03T01:54:36;9.50;;;3.37;;
15451;SDS011;7827;53.594;9.938;2023-04-03T01:57:04;8.07;;;3.50;;
15451;SDS011;7827;53.594;9.938;2023-04-03T01:59:33;13.90;;;4.40;;
15451;SDS011;7827;53.594;9.938;2023-04-03T02:02:01;12.07;;;3.67;;
15451;SDS011;7827;53.594;9.938;2023-04-03T02:04:30;11.93;;;4.07;;
15451;SDS011;7827;53.594;9.938;2023-04-03T02:06:59;10.53;;;3.73;;
15451;SDS011;7827;53.594;9.938;2023-04-03T02:09:28;9.23;;;3.90;;
15451;SDS011;7827;53.594;9.938;2023-04-03T02:11:56;10.13;;;3.67;;
15451;SDS011;7827;53.594;9.938;2023-04-03T02:14:25;6.73;;;3.63;;
15451;SDS011;7827;53.594;9.938;2023-04-03T02:16:53;9.40;;;3.47;;
15451;SDS011;7827;53.594;9.938;2023-04-03T02:19:22;7.93;;;3.70;;
15451;SDS011;7827;53.594;9.938;2023-04-03T02:21:51;8.87;;;3.30;;
15451;SDS011;7827;53.594;9.938;2023-04-03T02:24:20;10.00;;;3.93;;
15451;SDS011;7827;53.594;9.938;2023-04-03T02:26:49;10.23;;;3.70;;
15451;SDS011;7827;53.594;9.938;2023-04-03T02:29:17;13.73;;;4.10;;
15451;SDS011;7827;53.594;9.938;2023-04-03T02:31:46;8.67;;;3.87;;
15451;SDS011;7827;53.594;9.938;2023-04-03T02:34:15;13.10;;;4.07;;
15451;SDS011;7827;53.594;9.938;2023-04-03T02:36:45;10.70;;;4.33;;
15451;SDS011;7827;53.594;9.938;2023-04-03T02:39:14;12.20;;;4.00;;
15451;SDS011;7827;53.594;9.938;2023-04-03T02:41:45;13.97;;;4.10;;
15451;SDS011;7827;53.594;9.938;2023-04-03T02:44:18;10.00;;;4.50;;
15451;SDS011;7827;53.594;9.938;2023-04-03T02:46:47;9.90;;;4.03;;
15451;SDS011;7827;53.594;9.938;2023-04-03T02:49:16;8.73;;;3.67;;
15451;SDS011;7827;53.594;9.938;2023-04-03T02:51:44;9.33;;;3.40;;
15451;SDS011;7827;53.594;9.938;2023-04-03T02:54:13;9.53;;;3.53;;
15451;SDS011;7827;53.594;9.938;2023-04-03T02:56:48;12.30;;;3.90;;
15451;SDS011;7827;53.594;9.938;2023-04-03T02:59:16;16.37;;;4.40;;
15451;SDS011;7827;53.594;9.938;2023-04-03T03:01:45;12.90;;;4.00;;
15451;SDS011;7827;53.594;9.938;2023-04-03T03:04:13;10.33;;;4.00;;
15451;SDS011;7827;53.594;9.938;2023-04-03T03:06:42;6.60;;;3.83;;
15451;SDS011;7827;53.594;9.938;2023-04-03T03:09:10;8.80;;;4.00;;
15451;SDS011;7827;53.594;9.938;2023-04-03T03:11:41;7.80;;;3.83;;
15451;SDS011;7827;53.594;9.938;2023-04-03T03:14:11;13.17;;;3.90;;
15451;SDS011;7827;53.594;9.938;2023-04-03T03:16:39;10.07;;;3.73;;
15451;SDS011;7827;53.594;9.938;2023-04-03T03:19:07;8.73;;;3.80;;
15451;SDS011;7827;53.594;9.938;2023-04-03T03:21:36;7.33;;;3.77;;
15451;SDS011;7827;53.594;9.938;2023-04-03T03:24:05;9.00;;;3.93;;
15451;SDS011;7827;53.594;9.938;2023-04-03T03:26:34;7.83;;;3.97;;
15451;SDS011;7827;53.594;9.938;2023-04-03T03:29:02;6.37;;;3.60;;
15451;SDS011;7827;53.594;9.938;2023-04-03T03:31:32;9.80;;;3.57;;
15451;SDS011;7827;53.594;9.938;2023-04-03T03:34:01;8.07;;;3.97;;
15451;SDS011;7827;53.594;9.938;2023-04-03T03:36:29;12.53;;;4.33;;
15451;SDS011;7827;53.594;9.938;2023-04-03T03:38:58;8.00;;;4.20;;
15451;SDS011;7827;53.594;9.938;2023-04-03T03:41:26;9.97;;;4.10;;
15451;SDS011;7827;53.594;9.938;2023-04-03T03:43:54;7.77;;;4.23;;
15451;SDS011;7827;53.594;9.938;2023-04-03T03:46:23;8.50;;;4.03;;
15451;SDS011;7827;53.594;9.938;2023-04-03T03:48:53;8.07;;;4.53;;
15451;SDS011;7827;53.594;9.938;2023-04-03T03:51:22;7.40;;;4.63;;
15451;SDS011;7827;53.594;9.938;2023-04-03T03:53:51;13.77;;;5.07;;
15451;SDS011;7827;53.594;9.938;2023-04-03T03:56:20;13.60;;;4.30;;
15451;SDS011;7827;53.594;9.938;2023-04-03T03:58:48;9.07;;;4.33;;
15451;SDS011;7827;53.594;9.938;2023-04-03T04:01:17;8.50;;;4.40;;
15451;SDS011;7827;53.594;9.938;2023-04-03T04:03:47;10.13;;;4.40;;
15451;SDS011;7827;53.594;9.938;2023-04-03T04:06:21;11.07;;;4.03;;
15451;SDS011;7827;53.594;9.938;2023-04-03T04:08:51;8.67;;;4.00;;
15451;SDS011;7827;53.594;9.938;2023-04-03T04:11:20;6.57;;;4.40;;
15451;SDS011;7827;53.594;9.938;2023-04-03T04:13:50;8.83;;;3.80;;
15451;SDS011;7827;53.594;9.938;2023-04-03T04:16:22;6.17;;;3.87;;
15451;SDS011;7827;53.594;9.938;2023-04-03T04:18:52;11.47;;;4.30;;
15451;SDS011;7827;53.594;9.938;2023-04-03T04:21:22;8.07;;;4.20;;
15451;SDS011;7827;53.594;9.938;2023-04-03T04:23:52;9.47;;;4.13;;
15451;SDS011;7827;53.594;9.938;2023-04-03T04:26:20;13.90;;;4.53;;
15451;SDS011;7827;53.594;9.938;2023-04-03T04:28:49;10.83;;;4.60;;
15451;SDS011;7827;53.594;9.938;2023-04-03T04:31:18;11.20;;;4.23;;
15451;SDS011;7827;53.594;9.938;2023-04-03T04:33:47;14.90;;;4.30;;
15451;SDS011;7827;53.594;9.938;2023-04-03T04:36:17;13.37;;;4.77;;
15451;SDS011;7827;53.594;9.938;2023-04-03T04:38:47;14.00;;;5.03;;
15451;SDS011;7827;53.594;9.938;2023-04-03T04:41:21;10.37;;;4.60;;
15451;SDS011;7827;53.594;9.938;2023-04-03T04:43:50;8.53;;;4.97;;
15451;SDS011;7827;53.594;9.938;2023-04-03T04:46:19;8.83;;;4.37;;
15451;SDS011;7827;53.594;9.938;2023-04-03T04:48:52;11.50;;;4.97;;
15451;SDS011;7827;53.594;9.938;2023-04-03T04:51:21;12.60;;;4.80;;
15451;SDS011;7827;53.594;9.938;2023-04-03T04:53:51;12.17;;;4.43;;
15451;SDS011;7827;53.594;9.938;2023-04-03T04:56:22;14.10;;;4.40;;
15451;SDS011;7827;53.594;9.938;2023-04-03T04:58:54;8.10;;;4.70;;
15451;SDS011;7827;53.594;9.938;2023-04-03T05:01:23;11.47;;;5.13;;
15451;SDS011;7827;53.594;9.938;2023-04-03T05:04:01;10.57;;;4.80;;
15451;SDS011;7827;53.594;9.938;2023-04-03T05:06:31;12.97;;;5.30;;
15451;SDS011;7827;53.594;9.938;2023-04-03T05:09:01;10.00;;;5.00;;
15451;SDS011;7827;53.594;9.938;2023-04-03T05:11:31;9.87;;;5.07;;
15451;SDS011;7827;53.594;9.938;2023-04-03T05:13:59;11.47;;;5.13;;
15451;SDS011;7827;53.594;9.938;2023-04-03T05:16:29;9.73;;;4.97;;
15451;SDS011;7827;53.594;9.938;2023-04-03T05:18:57;10.17;;;4.50;;
15451;SDS011;7827;53.594;9.938;2023-04-03T05:21:26;14.90;;;5.07;;
15451;SDS011;7827;53.594;9.938;2023-04-03T05:24:02;12.20;;;4.93;;
15451;SDS011;7827;53.594;9.938;2023-04-03T05:26:38;11.73;;;4.90;;
15451;SDS011;7827;53.594;9.938;2023-04-03T05:29:07;12.50;;;5.37;;
15451;SDS011;7827;53.594;9.938;2023-04-03T05:31:36;10.03;;;4.70;;
15451;SDS011;7827;53.594;9.938;2023-04-03T05:34:06;13.27;;;4.97;;
15451;SDS011;7827;53.594;9.938;2023-04-03T05:36:36;14.43;;;4.27;;
15451;SDS011;7827;53.594;9.938;2023-04-03T05:39:08;13.47;;;5.13;;
15451;SDS011;7827;53.594;9.938;2023-04-03T05:41:40;13.13;;;4.67;;
15451;SDS011;7827;53.594;9.938;2023-04-03T05:44:09;10.80;;;4.43;;
15451;SDS011;7827;53.594;9.938;2023-04-03T05:46:37;11.83;;;5.03;;
15451;SDS011;7827;53.594;9.938;2023-04-03T05:49:08;8.07;;;4.47;;
15451;SDS011;7827;53.594;9.938;2023-04-03T05:51:37;12.33;;;4.17;;
15451;SDS011;7827;53.594;9.938;2023-04-03T05:54:17;13.23;;;4.30;;
15451;SDS011;7827;53.594;9.938;2023-04-03T05:56:51;9.97;;;4.93;;
15451;SDS011;7827;53.594;9.938;2023-04-03T05:59:21;15.13;;;4.53;;
15451;SDS011;7827;53.594;9.938;2023-04-03T06:01:52;8.40;;;4.33;;
15451;SDS011;7827;53.594;9.938;2023-04-03T06:04:20;9.50;;;4.60;;
15451;SDS011;7827;53.594;9.938;2023-04-03T06:06:49;8.40;;;4.50;;
15451;SDS011;7827;53.594;9.938;2023-04-03T06:09:22;13.63;;;4.80;;
15451;SDS011;7827;53.594;9.938;2023-04-03T06:11:53;15.20;;;6.03;;
15451;SDS011;7827;53.594;9.938;2023-04-03T06:14:23;10.17;;;4.80;;
15451;SDS011;7827;53.594;9.938;2023-04-03T06:16:51;8.37;;;4.67;;
15451;SDS011;7827;53.594;9.938;2023-04-03T06:19:20;14.13;;;4.70;;
15451;SDS011;7827;53.594;9.938;2023-04-03T06:21:53;11.47;;;4.83;;
15451;SDS011;7827;53.594;9.938;2023-04-03T06:24:24;8.27;;;4.93;;
15451;SDS011;7827;53.594;9.938;2023-04-03T06:26:52;10.90;;;5.17;;
15451;SDS011;7827;53.594;9.938;2023-04-03T06:29:21;13.03;;;5.43;;
15451;SDS011;7827;53.594;9.938;2023-04-03T06:31:49;9.43;;;4.53;;
15451;SDS011;7827;53.594;9.938;2023-04-03T06:34:18;8.30;;;4.73;;
15451;SDS011;7827;53.594;9.938;2023-04-03T06:36:46;10.73;;;5.63;;
15451;SDS011;7827;53.594;9.938;2023-04-03T06:39:17;8.90;;;5.07;;
15451;SDS011;7827;53.594;9.938;2023-04-03T06:41:50;13.40;;;4.93;;
15451;SDS011;7827;53.594;9.938;2023-04-03T06:44:27;12.30;;;4.90;;
15451;SDS011;7827;53.594;9.938;2023-04-03T06:46:55;11.17;;;5.13;;
15451;SDS011;7827;53.594;9.938;2023-04-03T06:49:23;10.23;;;4.50;;
15451;SDS011;7827;53.594;9.938;2023-04-03T06:51:52;9.53;;;4.63;;
15451;SDS011;7827;53.594;9.938;2023-04-03T06:54:20;9.30;;;4.37;;
15451;SDS011;7827;53.594;9.938;2023-04-03T06:56:50;7.63;;;4.00;;
15451;SDS011;7827;53.594;9.938;2023-04-03T06:59:18;9.27;;;4.37;;
15451;SDS011;7827;53.594;9.938;2023-04-03T07:01:47;9.73;;;4.37;;
15451;SDS011;7827;53.594;9.938;2023-04-03T07:04:15;7.50;;;3.90;;
15451;SDS011;7827;53.594;9.938;2023-04-03T07:06:44;12.00;;;4.80;;
15451;SDS011;7827;53.594;9.938;2023-04-03T07:09:13;8.57;;;4.43;;
15451;SDS011;7827;53.594;9.938;2023-04-03T07:11:41;11.17;;;3.60;;
15451;SDS011;7827;53.594;9.938;2023-04-03T07:14:11;8.73;;;4.00;;
15451;SDS011;7827;53.594;9.938;2023-04-03T07:16:39;7.20;;;3.80;;
15451;SDS011;7827;53.594;9.938;2023-04-03T07:19:08;8.60;;;3.97;;
15451;SDS011;7827;53.594;9.938;2023-04-03T07:21:36;8.03;;;4.30;;
15451;SDS011;7827;53.594;9.938;2023-04-03T07:24:05;6.53;;;4.00;;
15451;SDS011;7827;53.594;9.938;2023-04-03T07:26:38;6.97;;;3.40;;
15451;SDS011;7827;53.594;9.938;2023-04-03T07:29:07;7.07;;;2.43;;
15451;SDS011;7827;53.594;9.938;2023-04-03T07:31:37;6.13;;;2.70;;
15451;SDS011;7827;53.594;9.938;2023-04-03T07:34:07;5.50;;;2.77;;
15451;SDS011;7827;53.594;9.938;2023-04-03T07:36:36;6.87;;;3.20;;
15451;SDS011;7827;53.594;9.938;2023-04-03T07:39:04;6.43;;;2.63;;
15451;SDS011;7827;53.594;9.938;2023-04-03T07:41:33;7.60;;;2.63;;
15451;SDS011;7827;53.594;9.938;2023-04-03T07:44:02;6.10;;;1.90;;
15451;SDS011;7827;53.594;9.938;2023-04-03T07:46:30;5.97;;;2.07;;
15451;SDS011;7827;53.594;9.938;2023-04-03T07:49:00;4.60;;;2.10;;
15451;SDS011;7827;53.594;9.938;2023-04-03T07:51:29;5.13;;;2.30;;
15451;SDS011;7827;53.594;9.938;2023-04-03T07:53:57;5.87;;;2.10;;
15451;SDS011;7827;53.594;9.938;2023-04-03T07:56:26;5.10;;;1.83;;
15451;SDS011;7827;53.594;9.938;2023-04-03T07:58:54;6.37;;;2.03;;
15451;SDS011;7827;53.594;9.938;2023-04-03T08:01:22;5.67;;;2.03;;
15451;SDS011;7827;53.594;9.938;2023-04-03T08:03:50;3.37;;;2.10;;
15451;SDS011;7827;53.594;9.938;2023-04-03T08:06:20;2.70;;;1.67;;
15451;SDS011;7827;53.594;9.938;2023-04-03T08:09:07;4.77;;;2.07;;
15451;SDS011;7827;53.594;9.938;2023-04-03T08:11:38;3.90;;;1.93;;
15451;SDS011;7827;53.594;9.938;2023-04-03T08:14:06;3.17;;;2.07;;
15451;SDS011;7827;53.594;9.938;2023-04-03T08:16:37;6.63;;;1.97;;
15451;SDS011;7827;53.594;9.938;2023-04-03T08:19:06;3.37;;;1.87;;
15451;SDS011;7827;53.594;9.938;2023-04-03T08:21:45;7.70;;;2.03;;
15451;SDS011;7827;53.594;9.938;2023-04-03T08:24:13;4.80;;;1.90;;
15451;SDS011;7827;53.594;9.938;2023-04-03T08:26:42;2.97;;;2.00;;
15451;SDS011;7827;53.594;9.938;2023-04-03T08:29:10;5.47;;;1.97;;
15451;SDS011;7827;53.594;9.938;2023-04-03T08:31:39;5.07;;;1.70;;
15451;SDS011;7827;53.594;9.938;2023-04-03T08:34:07;3.33;;;1.90;;
15451;SDS011;7827;53.594;9.938;2023-04-03T08:36:36;6.30;;;2.27;;
15451;SDS011;7827;53.594;9.938;2023-04-03T08:39:06;5.80;;;2.20;;
15451;SDS011;7827;53.594;9.938;2023-04-03T08:41:35;5.07;;;1.90;;
15451;SDS011;7827;53.594;9.938;2023-04-03T08:44:18;4.80;;;2.13;;
15451;SDS011;7827;53.594;9.938;2023-04-03T08:46:55;4.57;;;2.00;;
15451;SDS011;7827;53.594;9.938;2023-04-03T08:49:33;4.80;;;1.90;;
15451;SDS011;7827;53.594;9.938;2023-04-03T08:52:10;5.33;;;2.30;;
15451;SDS011;7827;53.594;9.938;2023-04-03T08:54:47;3.90;;;2.20;;
15451;SDS011;7827;53.594;9.938;2023-04-03T08:57:20;6.47;;;2.00;;
15451;SDS011;7827;53.594;9.938;2023-04-03T08:59:57;7.40;;;1.80;;
15451;SDS011;7827;53.594;9.938;2023-04-03T09:02:31;2.83;;;1.80;;
15451;SDS011;7827;53.594;9.938;2023-04-03T09:05:11;4.43;;;1.90;;
15451;SDS011;7827;53.594;9.938;2023-04-03T09:07:45;5.03;;;1.80;;
15451;SDS011;7827;53.594;9.938;2023-04-03T09:10:26;4.57;;;1.90;;
15451;SDS011;7827;53.594;9.938;2023-04-03T09:13:01;8.47;;;2.23;;
15451;SDS011;7827;53.594;9.938;2023-04-03T09:15:38;5.47;;;1.87;;
15451;SDS011;7827;53.594;9.938;2023-04-03T09:18:11;4.77;;;2.23;;
15451;SDS011;7827;53.594;9.938;2023-04-03T09:20:48;3.10;;;2.00;;
15451;SDS011;7827;53.594;9.938;2023-04-03T09:23:29;3.60;;;1.90;;
15451;SDS011;7827;53.594;9.938;2023-04-03T09:26:11;5.37;;;1.80;;
15451;SDS011;7827;53.594;9.938;2023-04-03T09:28:46;3.10;;;1.60;;
15451;SDS011;7827;53.594;9.938;2023-04-03T09:31:19;3.13;;;1.67;;
15451;SDS011;7827;53.594;9.938;2023-04-03T09:33:50;3.77;;;1.70;;
15451;SDS011;7827;53.594;9.938;2023-04-03T09:36:43;2.20;;;1.40;;
15451;SDS011;7827;53.594;9.938;2023-04-03T09:39:15;4.20;;;1.60;;
15451;SDS011;7827;53.594;9.938;2023-04-03T09:41:58;2.83;;;1.50;;
15451;SDS011;7827;53.594;9.938;2023-04-03T09:44:30;2.83;;;1.50;;
15451;SDS011;7827;53.594;9.938;2023-04-03T09:47:00;3.87;;;1.80;;
15451;SDS011;7827;53.594;9.938;2023-04-03T09:49:47;3.13;;;1.97;;
15451;SDS011;7827;53.594;9.938;2023-04-03T09:52:19;2.83;;;1.60;;
15451;SDS011;7827;53.594;9.938;2023-04-03T09:54:51;4.07;;;1.63;;
15451;SDS011;7827;53.594;9.938;2023-04-03T09:57:21;2.27;;;1.50;;
15451;SDS011;7827;53.594;9.938;2023-04-03T09:59:56;2.97;;;1.60;;
15451;SDS011;7827;53.594;9.938;2023-04-03T10:02:32;2.23;;;1.47;;
15451;SDS011;7827;53.594;9.938;2023-04-03T10:05:23;4.97;;;1.50;;
15451;SDS011;7827;53.594;9.938;2023-04-03T10:08:09;2.87;;;1.60;;
15451;SDS011;7827;53.594;9.938;2023-04-03T10:11:05;4.23;;;1.73;;
15451;SDS011;7827;53.594;9.938;2023-04-03T10:13:50;5.03;;;1.67;;
15451;SDS011;7827;53.594;9.938;2023-04-03T10:16:24;2.60;;;1.40;;
15451;SDS011;7827;53.594;9.938;2023-04-03T10:19:03;3.80;;;1.80;;
15451;SDS011;7827;53.594;9.938;2023-04-03T10:21:50;4.23;;;1.90;;
15451;SDS011;7827;53.594;9.938;2023-04-03T10:24:28;2.97;;;1.57;;
15451;SDS011;7827;53.594;9.938;2023-04-03T10:27:07;2.30;;;1.50;;
15451;SDS011;7827;53.594;9.938;2023-04-03T10:29:48;4.70;;;2.20;;
15451;SDS011;7827;53.594;9.938;2023-04-03T10:32:43;3.10;;;1.63;;
15451;SDS011;7827;53.594;9.938;2023-04-03T10:35:25;4.10;;;1.77;;
15451;SDS011;7827;53.594;9.938;2023-04-03T10:38:12;2.87;;;1.60;;
15451;SDS011;7827;53.594;9.938;2023-04-03T10:40:51;2.63;;;1.50;;
15451;SDS011;7827;53.594;9.938;2023-04-03T10:43:29;1.83;;;1.40;;
15451;SDS011;7827;53.594;9.938;2023-04-03T10:46:10;4.97;;;1.73;;
15451;SDS011;7827;53.594;9.938;2023-04-03T10:48:51;3.23;;;1.53;;
15451;SDS011;7827;53.594;9.938;2023-04-03T10:51:36;4.30;;;1.73;;
15451;SDS011;7827;53.594;9.938;2023-04-03T10:54:13;4.33;;;1.67;;
15451;SDS011;7827;53.594;9.938;2023-04-03T10:56:52;4.80;;;1.70;;
15451;SDS011;7827;53.594;9.938;2023-04-03T10:59:38;2.90;;;1.60;;
15451;SDS011;7827;53.594;9.938;2023-04-03T11:02:16;2.60;;;1.53;;
15451;SDS011;7827;53.594;9.938;2023-04-03T11:04:56;3.20;;;1.83;;
15451;SDS011;7827;53.594;9.938;2023-04-03T11:07:32;2.57;;;1.60;;
15451;SDS011;7827;53.594;9.938;2023-04-03T11:10:10;3.27;;;1.63;;
15451;SDS011;7827;53.594;9.938;2023-04-03T11:12:48;4.10;;;1.90;;
15451;SDS011;7827;53.594;9.938;2023-04-03T11:15:23;4.47;;;1.90;;
15451;SDS011;7827;53.594;9.938;2023-04-03T11:17:55;5.50;;;2.00;;
15451;SDS011;7827;53.594;9.938;2023-04-03T11:20:32;2.20;;;1.40;;
15451;SDS011;7827;53.594;9.938;2023-04-03T11:23:05;3.60;;;1.90;;
15451;SDS011;7827;53.594;9.938;2023-04-03T11:25:42;2.90;;;1.63;;
15451;SDS011;7827;53.594;9.938;2023-04-03T11:28:15;3.60;;;2.10;;
15451;SDS011;7827;53.594;9.938;2023-04-03T11:30:44;5.17;;;2.07;;
15451;SDS011;7827;53.594;9.938;2023-04-03T11:33:30;4.27;;;1.77;;
15451;SDS011;7827;53.594;9.938;2023-04-03T11:36:08;4.07;;;1.93;;
15451;SDS011;7827;53.594;9.938;2023-04-03T11:38:51;4.87;;;1.90;;
15451;SDS011;7827;53.594;9.938;2023-04-03T11:41:25;3.27;;;2.00;;
15451;SDS011;7827;53.594;9.938;2023-04-03T11:43:57;2.77;;;1.63;;
15451;SDS011;7827;53.594;9.938;2023-04-03T11:46:48;6.27;;;2.00;;
15451;SDS011;7827;53.594;9.938;2023-04-03T11:55:52;2.37;;;1.60;;
15451;SDS011;7827;53.594;9.938;2023-04-03T11:58:29;5.03;;;2.00;;
15451;SDS011;7827;53.594;9.938;2023-04-03T12:01:04;5.53;;;1.87;;
15451;SDS011;7827;53.594;9.938;2023-04-03T12:12:38;3.57;;;1.77;;
15451;SDS011;7827;53.594;9.938;2023-04-03T12:18:31;7.20;;;2.17;;
15451;SDS011;7827;53.594;9.938;2023-04-03T12:22:04;3.17;;;1.80;;
15451;SDS011;7827;53.594;9.938;2023-04-03T12:24:38;2.40;;;1.60;;
15451;SDS011;7827;53.594;9.938;2023-04-03T12:27:20;3.77;;;1.60;;
15451;SDS011;7827;53.594;9.938;2023-04-03T12:29:59;4.13;;;1.70;;
15451;SDS011;7827;53.594;9.938;2023-04-03T12:32:41;2.57;;;1.53;;
15451;SDS011;7827;53.594;9.938;2023-04-03T12:35:43;3.17;;;1.70;;
15451;SDS011;7827;53.594;9.938;2023-04-03T12:38:33;2.67;;;1.40;;
15451;SDS011;7827;53.594;9.938;2023-04-03T12:41:30;2.53;;;1.60;;
15451;SDS011;7827;53.594;9.938;2023-04-03T12:44:13;2.40;;;1.60;;
15451;SDS011;7827;53.594;9.938;2023-04-03T12:47:07;6.93;;;1.67;;
15451;SDS011;7827;53.594;9.938;2023-04-03T12:49:50;2.50;;;1.63;;
15451;SDS011;7827;53.594;9.938;2023-04-03T12:52:28;5.50;;;1.97;;
15451;SDS011;7827;53.594;9.938;2023-04-03T12:55:07;4.07;;;1.53;;
15451;SDS011;7827;53.594;9.938;2023-04-03T12:57:45;5.17;;;1.87;;
15451;SDS011;7827;53.594;9.938;2023-04-03T13:03:07;3.17;;;1.90;;
15451;SDS011;7827;53.594;9.938;2023-04-03T13:05:54;5.40;;;1.87;;
15451;SDS011;7827;53.594;9.938;2023-04-03T13:08:26;2.80;;;1.87;;
15451;SDS011;7827;53.594;9.938;2023-04-03T13:10:58;4.03;;;1.70;;
15451;SDS011;7827;53.594;9.938;2023-04-03T13:13:31;2.73;;;1.60;;
15451;SDS011;7827;53.594;9.938;2023-04-03T13:15:59;3.03;;;1.90;;
15451;SDS011;7827;53.594;9.938;2023-04-03T13:18:37;5.17;;;1.80;;
15451;SDS011;7827;53.594;9.938;2023-04-03T13:21:06;4.20;;;2.00;;
15451;SDS011;7827;53.594;9.938;2023-04-03T13:23:43;3.83;;;1.60;;
15451;SDS011;7827;53.594;9.938;2023-04-03T13:26:24;4.43;;;1.73;;
15451;SDS011;7827;53.594;9.938;2023-04-03T13:29:00;3.00;;;2.03;;
15451;SDS011;7827;53.594;9.938;2023-04-03T13:31:35;2.80;;;1.60;;
15451;SDS011;7827;53.594;9.938;2023-04-03T13:34:10;5.30;;;1.70;;
15451;SDS011;7827;53.594;9.938;2023-04-03T13:36:45;3.07;;;1.60;;
15451;SDS011;7827;53.594;9.938;2023-04-03T13:39:24;2.90;;;1.70;;
15451;SDS011;7827;53.594;9.938;2023-04-03T13:41:57;5.23;;;1.83;;
15451;SDS011;7827;53.594;9.938;2023-04-03T13:44:31;2.87;;;1.87;;
15451;SDS011;7827;53.594;9.938;2023-04-03T13:47:17;4.43;;;2.13;;
15451;SDS011;7827;53.594;9.938;2023-04-03T13:49:59;4.00;;;1.70;;
15451;SDS011;7827;53.594;9.938;2023-04-03T13:52:32;2.47;;;1.53;;
15451;SDS011;7827;53.594;9.938;2023-04-03T13:55:11;4.07;;;1.80;;
15451;SDS011;7827;53.594;9.938;2023-04-03T13:57:52;3.50;;;1.70;;
15451;SDS011;7827;53.594;9.938;2023-04-03T14:00:34;3.60;;;1.90;;
15451;SDS011;7827;53.594;9.938;2023-04-03T14:03:12;2.57;;;1.70;;
15451;SDS011;7827;53.594;9.938;2023-04-03T14:05:41;2.30;;;1.47;;
15451;SDS011;7827;53.594;9.938;2023-04-03T14:08:11;2.23;;;1.53;;
15451;SDS011;7827;53.594;9.938;2023-04-03T14:10:39;3.80;;;1.80;;
15451;SDS011;7827;53.594;9.938;2023-04-03T14:13:09;9.57;;;1.60;;
15451;SDS011;7827;53.594;9.938;2023-04-03T14:15:40;5.00;;;1.90;;
15451;SDS011;7827;53.594;9.938;2023-04-03T14:18:10;2.57;;;1.40;;
15451;SDS011;7827;53.594;9.938;2023-04-03T14:20:39;5.13;;;1.70;;
15451;SDS011;7827;53.594;9.938;2023-04-03T14:23:08;4.63;;;1.90;;
15451;SDS011;7827;53.594;9.938;2023-04-03T14:25:39;3.20;;;1.90;;
15451;SDS011;7827;53.594;9.938;2023-04-03T14:28:13;2.40;;;1.60;;
15451;SDS011;7827;53.594;9.938;2023-04-03T14:30:46;4.60;;;1.93;;
15451;SDS011;7827;53.594;9.938;2023-04-03T14:33:16;2.70;;;1.70;;
15451;SDS011;7827;53.594;9.938;2023-04-03T14:35:47;5.53;;;2.00;;
15451;SDS011;7827;53.594;9.938;2023-04-03T14:38:20;3.80;;;1.77;;
15451;SDS011;7827;53.594;9.938;2023-04-03T14:40:52;3.73;;;1.90;;
15451;SDS011;7827;53.594;9.938;2023-04-03T14:43:32;3.53;;;1.87;;
15451;SDS011;7827;53.594;9.938;2023-04-03T14:46:04;3.63;;;1.50;;
15451;SDS011;7827;53.594;9.938;2023-04-03T14:48:39;4.93;;;1.83;;
15451;SDS011;7827;53.594;9.938;2023-04-03T14:51:08;3.20;;;1.60;;
15451;SDS011;7827;53.594;9.938;2023-04-03T14:53:39;6.27;;;2.00;;
15451;SDS011;7827;53.594;9.938;2023-04-03T14:56:10;4.70;;;1.93;;
15451;SDS011;7827;53.594;9.938;2023-04-03T14:58:42;3.73;;;1.83;;
15451;SDS011;7827;53.594;9.938;2023-04-03T15:01:12;5.70;;;2.10;;
15451;SDS011;7827;53.594;9.938;2023-04-03T15:03:41;6.23;;;1.90;;
15451;SDS011;7827;53.594;9.938;2023-04-03T15:06:10;3.77;;;1.87;;
15451;SDS011;7827;53.594;9.938;2023-04-03T15:08:41;3.53;;;2.10;;
15451;SDS011;7827;53.594;9.938;2023-04-03T15:11:10;2.70;;;1.60;;
15451;SDS011;7827;53.594;9.938;2023-04-03T15:13:39;6.67;;;2.10;;
15451;SDS011;7827;53.594;9.938;2023-04-03T15:16:12;4.50;;;1.80;;
15451;SDS011;7827;53.594;9.938;2023-04-03T15:18:44;5.87;;;2.27;;
15451;SDS011;7827;53.594;9.938;2023-04-03T15:21:14;5.80;;;3.03;;
15451;SDS011;7827;53.594;9.938;2023-04-03T15:23:43;5.47;;;2.33;;
15451;SDS011;7827;53.594;9.938;2023-04-03T15:26:11;3.93;;;1.83;;
15451;SDS011;7827;53.594;9.938;2023-04-03T15:28:40;5.07;;;2.03;;
15451;SDS011;7827;53.594;9.938;2023-04-03T15:31:10;3.03;;;1.70;;
15451;SDS011;7827;53.594;9.938;2023-04-03T15:33:40;4.97;;;2.10;;
15451;SDS011;7827;53.594;9.938;2023-04-03T15:36:09;3.10;;;2.10;;
15451;SDS011;7827;53.594;9.938;2023-04-03T15:38:42;5.00;;;2.00;;
15451;SDS011;7827;53.594;9.938;2023-04-03T15:41:10;6.77;;;2.20;;
15451;SDS011;7827;53.594;9.938;2023-04-03T15:43:40;3.63;;;2.10;;
15451;SDS011;7827;53.594;9.938;2023-04-03T15:46:08;3.13;;;1.80;;
15451;SDS011;7827;53.594;9.938;2023-04-03T15:48:38;3.80;;;1.83;;
15451;SDS011;7827;53.594;9.938;2023-04-03T15:51:07;2.80;;;1.80;;
15451;SDS011;7827;53.594;9.938;2023-04-03T15:53:35;2.73;;;1.87;;
15451;SDS011;7827;53.594;9.938;2023-04-03T15:56:04;4.53;;;2.23;;